Accueil
METAR-TAF:

METAR-TAF

Aéroports :

Montréal Trudeau, Québec, Canada

Aéroport international Pierre-Elliott-Trudeau de Montréal

latitude: 45-28N, longitude: 073-45W, altitude: 31 m

Observation

Le bulletin a été fait il y a 20 minutes, à 20:00 UTC
Vent 2 kt de direction variable
Température 14°C
Humidité 18%
Pression 1028 hPa
Visibilité: 48.3 km
Ciel clair

METAR: CYUL 222000Z VRB02KT 30SM SKC 14/M10 A3036 RMK SLP283

Heure: 16:20 (20:20 UTC)

Prévision

Le bulletin a été fait il y a 2 heures et 40 minutes, à 17:40 UTC
Prévision valable du 22 à 18 UTC au 23 à 18 UTC
Vent 6 kt de ouest/sud-ouest
Visibilité: 10 km
Ciel clair
Evoluant progressivement
du 23 à 02 UTC au 23 à 04 UTC
Vent 3 kt de direction variable
A partir de 23 à 1500 UTC
Vent 8 kt de sud-ouest
Visibilité: 10 km
Nuages épars à une hauteur de 26000 ft

TAF: CYUL 221740Z 2218/2318 24006KT P6SM SKC BECMG 2302/2304 VRB03KT FM231500 22008KT P6SM SCT260 RMK NXT FCST BY 222100Z

Observations et prévisions météorologiques de plus de 4000 aéroports (messages METAR et TAF).

Les stations disponibles sont représentées par des disques jaunes et rouges sur la carte.

Passer la souris dessus pour voir le nom de la station.

Cliquer dessus pour voir les observations et prévisions météorologiques.

Pour changer de carte: cliquez sur les boutons verts avec une croix noire pour zoomer, sur le bouton vert avec un tiret pour effectuer un zoom arrière, ou sur les flèches vertes pour les cartes adjacentes.


METAR-TAF: